Time;durP1;ratioP1;P1;durP2;ratioP2;P2;SDS_P1;SDS_P2;PMS_P1;PMS_P2;Temp;Humidity;BMP_temperature;BMP_pressure;BME280_temperature;BME280_humidity;BME280_pressure;Samples;Min_cycle;Max_cycle;Signal;HPM_P1;HPM_P2
2023/01/20 00:00:50;;;;;;;36.53;18.75;;;;;;;-144.87;100.00;61487.56;5020708;28;20431;-77
2023/01/20 00:03:16;;;;;;;36.40;20.13;;;;;;;-144.87;100.00;61487.56;5036289;28;20044;-78
2023/01/20 00:05:52;;;;;;;34.30;19.50;;;;;;;-144.87;100.00;61487.56;5002395;28;20034;-78
2023/01/20 00:08:18;;;;;;;37.22;20.08;;;;;;;-144.87;100.00;61487.56;5020931;28;20054;-77
2023/01/20 00:10:44;;;;;;;37.28;20.15;;;;;;;-144.87;100.00;61487.56;5019253;28;20046;-77
2023/01/20 00:13:11;;;;;;;38.75;20.23;;;;;;;-144.87;100.00;61487.56;5003776;28;20033;-78
2023/01/20 00:15:37;;;;;;;42.30;21.88;;;;;;;-144.87;100.00;61487.56;5020080;28;20404;-78
2023/01/20 00:18:03;;;;;;;44.50;21.33;;;;;;;-144.87;100.00;61487.56;5007118;28;20044;-78
2023/01/20 00:20:30;;;;;;;44.10;22.90;;;;;;;-144.87;100.00;61487.56;5005175;28;20421;-78
2023/01/20 00:22:56;;;;;;;51.50;25.92;;;;;;;-144.87;100.00;61487.56;5003136;28;20425;-78
2023/01/20 00:25:22;;;;;;;51.72;26.48;;;;;;;-144.87;100.00;61487.56;5004002;28;20095;-78
2023/01/20 00:27:53;;;;;;;55.13;28.27;;;;;;;-144.87;100.00;61487.56;5020774;28;20062;-78
2023/01/20 00:30:20;;;;;;;;;;;;;;;-144.87;100.00;61487.56;5018760;28;20052;-78
2023/01/20 00:32:46;;;;;;;50.92;23.55;;;;;;;-144.87;100.00;61487.56;5037582;28;20414;-78
2023/01/20 00:35:13;;;;;;;53.03;26.35;;;;;;;-144.87;100.00;61487.56;5005437;28;20040;-78
2023/01/20 00:37:41;;;;;;;62.95;30.10;;;;;;;-144.87;100.00;61487.56;5024910;28;20034;-77
2023/01/20 00:40:09;;;;;;;57.30;27.83;;;;;;;-144.87;100.00;61487.56;5038056;28;20508;-77
2023/01/20 00:42:35;;;;;;;54.67;27.52;;;;;;;-144.87;100.00;61487.56;5012199;28;20412;-77
2023/01/20 00:45:05;;;;;;;54.60;25.33;;;;;;;-144.87;100.00;61487.56;5006227;28;20120;-77
2023/01/20 00:47:31;;;;;;;57.90;26.83;;;;;;;-144.87;100.00;61487.56;5014943;28;20034;-78
2023/01/20 00:49:58;;;;;;;53.03;24.77;;;;;;;-144.87;100.00;61487.56;5017492;28;20037;-78
2023/01/20 00:52:24;;;;;;;60.03;27.75;;;;;;;-144.87;100.00;61487.56;5030132;28;20149;-77
2023/01/20 00:54:50;;;;;;;61.10;28.58;;;;;;;-144.87;100.00;61487.56;5014764;28;20519;-78
2023/01/20 00:57:16;;;;;;;67.28;30.42;;;;;;;-144.87;100.00;61487.56;5001951;28;20378;-78
2023/01/20 00:59:43;;;;;;;67.75;29.40;;;;;;;-144.87;100.00;61487.56;4999225;28;20042;-78
2023/01/20 01:02:09;;;;;;;64.43;28.35;;;;;;;-144.87;100.00;61487.56;5002037;28;20173;-78
2023/01/20 01:04:35;;;;;;;64.32;29.95;;;;;;;-144.87;100.00;61487.56;5002535;28;20050;-78
2023/01/20 01:07:01;;;;;;;63.60;29.77;;;;;;;-144.87;100.00;61487.56;5004191;28;20044;-78
2023/01/20 01:09:28;;;;;;;74.40;31.85;;;;;;;-144.87;100.00;61487.56;4986161;28;20034;-78
2023/01/20 01:11:54;;;;;;;76.95;32.22;;;;;;;-144.87;100.00;61487.56;5000538;28;20132;-78
2023/01/20 01:14:20;;;;;;;84.05;35.88;;;;;;;-144.87;100.00;61487.56;5034451;28;20042;-77
2023/01/20 01:16:46;;;;;;;84.47;35.15;;;;;;;-144.87;100.00;61487.56;4997769;28;20413;-76
2023/01/20 01:19:13;;;;;;;80.03;34.60;;;;;;;-144.87;100.00;61487.56;4985986;28;20115;-77
2023/01/20 01:21:39;;;;;;;89.80;36.75;;;;;;;-144.87;100.00;61487.56;4986039;28;20529;-77
2023/01/20 01:24:05;;;;;;;91.78;37.13;;;;;;;-144.87;100.00;61487.56;4999789;28;20034;-77
2023/01/20 01:26:31;;;;;;;96.68;38.60;;;;;;;-144.87;100.00;61487.56;4999852;28;20499;-77
2023/01/20 01:28:58;;;;;;;91.70;38.92;;;;;;;-144.87;100.00;61487.56;4997932;28;20037;-77
2023/01/20 01:31:24;;;;;;;107.47;42.03;;;;;;;-144.87;100.00;61487.56;4999065;28;20543;-77
2023/01/20 01:33:50;;;;;;;108.13;41.65;;;;;;;-144.87;100.00;61487.56;5017353;28;20429;-78
2023/01/20 01:36:17;;;;;;;122.80;44.28;;;;;;;-144.87;100.00;61487.56;5003284;28;20445;-78
2023/01/20 01:38:44;;;;;;;132.48;45.50;;;;;;;-144.87;100.00;61487.56;5016288;28;20060;-77
2023/01/20 01:41:12;;;;;;;123.32;45.25;;;;;;;-144.87;100.00;61487.56;5003682;28;20096;-77
2023/01/20 01:43:57;;;;;;;137.35;47.20;;;;;;;-144.87;100.00;61487.56;4985237;28;20034;-77
2023/01/20 01:46:23;;;;;;;134.40;47.40;;;;;;;-144.87;100.00;61487.56;5037443;28;20391;-77
2023/01/20 01:48:49;;;;;;;133.50;45.83;;;;;;;-144.87;100.00;61487.56;4468588;28;15066403;-77
2023/01/20 01:51:22;;;;;;;146.32;48.42;;;;;;;-144.87;100.00;61487.56;5007129;28;20417;-76
2023/01/20 01:53:54;;;;;;;137.95;49.35;;;;;;;-144.87;100.00;61487.56;5039006;28;20038;-77
2023/01/20 01:56:25;;;;;;;140.13;48.42;;;;;;;-144.87;100.00;61487.56;5014181;28;20113;-77
2023/01/20 01:58:53;;;;;;;153.63;48.03;;;;;;;-144.87;100.00;61487.56;5007646;28;20030;-77
2023/01/20 02:01:20;;;;;;;142.65;47.28;;;;;;;-144.87;100.00;61487.56;5038476;28;20041;-77
2023/01/20 02:04:04;;;;;;;142.73;48.42;;;;;;;-144.87;100.00;61487.56;5006143;28;20188;-77
2023/01/20 02:06:33;;;;;;;140.98;49.92;;;;;;;-144.87;100.00;61487.56;5038880;28;20404;-78
2023/01/20 02:09:02;;;;;;;146.90;49.17;;;;;;;-144.87;100.00;61487.56;5009082;28;20036;-77
2023/01/20 02:11:30;;;;;;;125.30;45.35;;;;;;;-144.87;100.00;61487.56;5036707;28;20022;-77
2023/01/20 02:13:57;;;;;;;139.88;47.25;;;;;;;-144.87;100.00;61487.56;5022180;28;20025;-78
2023/01/20 02:16:43;;;;;;;133.63;48.10;;;;;;;-144.87;100.00;61487.56;5023890;28;20041;-77
2023/01/20 02:19:25;;;;;;;134.80;46.70;;;;;;;-144.87;100.00;61487.56;5003223;28;20477;-77
2023/01/20 02:22:28;;;;;;;124.32;44.58;;;;;;;-144.87;100.00;61487.56;5038764;28;20473;-77
2023/01/20 02:25:19;;;;;;;122.18;46.03;;;;;;;-144.87;100.00;61487.56;5009294;28;20038;-79
2023/01/20 02:28:27;;;;;;;140.70;48.53;;;;;;;-144.87;100.00;61487.56;5041351;28;20113;-76
2023/01/20 02:31:31;;;;;;;125.70;44.65;;;;;;;-144.87;100.00;61487.56;5038203;28;20069;-78
2023/01/20 02:34:02;;;;;;;137.63;46.15;;;;;;;-144.87;100.00;61487.56;5007633;28;20362;-77
2023/01/20 02:36:50;;;;;;;141.00;49.05;;;;;;;-144.87;100.00;61487.56;5018862;28;20092;-77
2023/01/20 02:39:29;;;;;;;137.63;47.63;;;;;;;-144.87;100.00;61487.56;5037020;28;20306;-77
2023/01/20 02:42:04;;;;;;;128.95;46.67;;;;;;;-144.87;100.00;61487.56;5036470;28;20429;-77
2023/01/20 02:44:48;;;;;;;137.00;48.10;;;;;;;-144.87;100.00;61487.56;5038772;28;20121;-77
2023/01/20 02:47:23;;;;;;;147.13;50.95;;;;;;;-144.87;100.00;61487.56;5039626;28;20026;-76
2023/01/20 02:49:52;;;;;;;140.65;49.80;;;;;;;-144.87;100.00;61487.56;5004191;28;20493;-77
2023/01/20 02:52:26;;;;;;;148.18;50.75;;;;;;;-144.87;100.00;61487.56;5034772;28;20088;-78
2023/01/20 02:54:54;;;;;;;144.18;49.42;;;;;;;-144.87;100.00;61487.56;5040119;28;20324;-76
2023/01/20 02:57:28;;;;;;;151.13;52.92;;;;;;;-144.87;100.00;61487.56;5021890;28;20420;-78
2023/01/20 03:00:02;;;;;;;155.60;52.33;;;;;;;-144.87;100.00;61487.56;5021765;28;20398;-78
2023/01/20 03:02:30;;;;;;;150.18;52.80;;;;;;;-144.87;100.00;61487.56;5037787;28;20040;-78
2023/01/20 03:05:05;;;;;;;171.45;53.90;;;;;;;-144.87;100.00;61487.56;5034353;28;20076;-78
2023/01/20 03:07:34;;;;;;;156.68;51.38;;;;;;;-144.87;100.00;61487.56;5048130;28;20053;-78
2023/01/20 03:10:03;;;;;;;148.13;51.17;;;;;;;-144.87;100.00;61487.56;5027841;28;20034;-76
2023/01/20 03:12:46;;;;;;;147.93;49.53;;;;;;;-144.87;100.00;61487.56;5027176;28;20044;-76
2023/01/20 03:15:13;;;;;;;163.65;54.58;;;;;;;-144.87;100.00;61487.56;5010803;28;20064;-76
2023/01/20 03:17:39;;;;;;;154.73;50.70;;;;;;;-144.87;100.00;61487.56;5009700;28;20397;-76
2023/01/20 03:20:07;;;;;;;157.32;53.33;;;;;;;-144.87;100.00;61487.56;4971589;28;20042;-77
2023/01/20 03:22:33;;;;;;;163.18;53.85;;;;;;;-144.87;100.00;61487.56;5018046;28;20069;-77
2023/01/20 03:25:00;;;;;;;165.98;55.92;;;;;;;-144.87;100.00;61487.56;5007255;28;20191;-77
2023/01/20 03:27:26;;;;;;;167.25;54.35;;;;;;;-144.87;100.00;61487.56;5039808;28;20037;-77
2023/01/20 03:29:52;;;;;;;160.32;55.15;;;;;;;-144.87;100.00;61487.56;5037200;28;20080;-77
2023/01/20 03:32:24;;;;;;;167.73;58.25;;;;;;;-144.87;100.00;61487.56;5002673;28;20092;-78
2023/01/20 03:34:52;;;;;;;180.45;55.85;;;;;;;-144.87;100.00;61487.56;5026480;28;20057;-77
2023/01/20 03:37:19;;;;;;;165.70;54.22;;;;;;;-144.87;100.00;61487.56;5036064;28;20125;-78
2023/01/20 03:39:45;;;;;;;163.73;56.30;;;;;;;-144.87;100.00;61487.56;5038313;28;20034;-77
2023/01/20 03:42:22;;;;;;;176.77;60.35;;;;;;;-144.87;100.00;61487.56;5036871;28;20124;-77
2023/01/20 03:45:04;;;;;;;175.50;55.90;;;;;;;-144.87;100.00;61487.56;5022007;28;20472;-77
2023/01/20 03:47:49;;;;;;;177.13;58.17;;;;;;;-144.87;100.00;61487.56;5037148;28;20030;-77
2023/01/20 03:50:37;;;;;;;178.00;55.13;;;;;;;-144.87;100.00;61487.56;5034233;28;20092;-76
2023/01/20 03:53:15;;;;;;;177.90;56.75;;;;;;;-144.87;100.00;61487.56;5036362;28;20408;-77
2023/01/20 03:55:50;;;;;;;170.52;56.40;;;;;;;-144.87;100.00;61487.56;5005939;28;20034;-78
2023/01/20 03:58:38;;;;;;;173.30;57.28;;;;;;;-144.87;100.00;61487.56;5005615;28;20125;-78
2023/01/20 04:01:06;;;;;;;161.18;54.10;;;;;;;-144.87;100.00;61487.56;5031189;28;20038;-77
2023/01/20 04:03:37;;;;;;;168.60;55.38;;;;;;;-144.87;100.00;61487.56;5004883;28;20436;-77
2023/01/20 04:06:05;;;;;;;177.43;57.83;;;;;;;-144.87;100.00;61487.56;5034087;28;20063;-77
2023/01/20 04:08:36;;;;;;;168.38;54.45;;;;;;;-144.87;100.00;61487.56;5033495;28;20399;-77
2023/01/20 04:11:06;;;;;;;171.35;57.50;;;;;;;-144.87;100.00;61487.56;5000995;28;20045;-77
2023/01/20 04:13:32;;;;;;;158.73;53.78;;;;;;;-144.87;100.00;61487.56;5036801;28;20088;-77
2023/01/20 04:16:00;;;;;;;166.02;54.85;;;;;;;-144.87;100.00;61487.56;5033335;28;20661;-77
2023/01/20 04:18:27;;;;;;;180.10;60.33;;;;;;;-144.87;100.00;61487.56;5031570;28;20038;-77
2023/01/20 04:21:02;;;;;;;180.02;59.92;;;;;;;-144.87;100.00;61487.56;5038053;28;20053;-77
2023/01/20 04:23:50;;;;;;;166.43;54.47;;;;;;;-144.87;100.00;61487.56;5019937;28;20463;-79
2023/01/20 04:26:17;;;;;;;161.77;54.33;;;;;;;-144.87;100.00;61487.56;5015254;28;20546;-77
2023/01/20 04:28:43;;;;;;;169.88;57.65;;;;;;;-144.87;100.00;61487.56;5020421;28;20049;-77
2023/01/20 04:31:10;;;;;;;156.63;53.35;;;;;;;-144.87;100.00;61487.56;5011351;28;20109;-77
2023/01/20 04:33:37;;;;;;;162.80;56.70;;;;;;;-144.87;100.00;61487.56;5005045;28;20113;-77
2023/01/20 04:36:04;;;;;;;171.02;56.33;;;;;;;-144.87;100.00;61487.56;5001923;28;20519;-77
2023/01/20 04:38:30;;;;;;;155.45;54.92;;;;;;;-144.87;100.00;61487.56;5009304;28;20132;-77
2023/01/20 04:40:57;;;;;;;169.23;53.53;;;;;;;-144.87;100.00;61487.56;5033681;28;20137;-78
2023/01/20 04:43:24;;;;;;;179.07;56.13;;;;;;;-144.87;100.00;61487.56;5004265;28;20127;-76
2023/01/20 04:45:50;;;;;;;171.15;56.92;;;;;;;-144.87;100.00;61487.56;5003652;28;21441;-76
2023/01/20 04:48:17;;;;;;;168.77;54.38;;;;;;;-144.87;100.00;61487.56;5003690;28;20595;-79
2023/01/20 04:50:44;;;;;;;173.27;54.47;;;;;;;-144.87;100.00;61487.56;5002422;28;20065;-78
2023/01/20 04:53:12;;;;;;;177.73;56.08;;;;;;;-144.87;100.00;61487.56;5005910;28;20423;-78
2023/01/20 04:55:39;;;;;;;175.63;56.28;;;;;;;-144.87;100.00;61487.56;5032861;28;20372;-78
2023/01/20 04:58:05;;;;;;;190.10;57.22;;;;;;;-144.87;100.00;61487.56;5016820;28;20179;-78
2023/01/20 05:00:31;;;;;;;196.02;57.53;;;;;;;-144.87;100.00;61487.56;5021379;28;20033;-77
2023/01/20 05:02:58;;;;;;;177.90;57.97;;;;;;;-144.87;100.00;61487.56;5005837;28;20044;-77
2023/01/20 05:05:24;;;;;;;191.05;55.63;;;;;;;-144.87;100.00;61487.56;5029915;28;20400;-77
2023/01/20 05:07:54;;;;;;;194.85;58.33;;;;;;;-144.87;100.00;61487.56;5005124;28;20052;-78
2023/01/20 05:10:20;;;;;;;192.90;59.17;;;;;;;-144.87;100.00;61487.56;5017900;28;20524;-78
2023/01/20 05:12:47;;;;;;;192.30;59.55;;;;;;;-144.87;100.00;61487.56;5004349;28;20412;-77
2023/01/20 05:15:13;;;;;;;193.82;55.67;;;;;;;-144.87;100.00;61487.56;5003474;28;20030;-78
2023/01/20 05:17:39;;;;;;;194.73;58.85;;;;;;;-144.87;100.00;61487.56;5020547;28;20046;-78
2023/01/20 05:20:06;;;;;;;194.20;58.20;;;;;;;-144.87;100.00;61487.56;5020798;28;20406;-78
2023/01/20 05:22:32;;;;;;;198.70;59.47;;;;;;;-144.87;100.00;61487.56;4988687;28;20053;-78
2023/01/20 05:24:59;;;;;;;189.45;56.67;;;;;;;-144.87;100.00;61487.56;5004882;28;20034;-77
2023/01/20 05:27:25;;;;;;;198.55;62.20;;;;;;;-144.87;100.00;61487.56;5000669;28;20500;-78
2023/01/20 05:29:51;;;;;;;210.18;61.60;;;;;;;-144.87;100.00;61487.56;5020486;28;20423;-78
2023/01/20 05:32:18;;;;;;;209.35;61.67;;;;;;;-144.87;100.00;61487.56;5031969;28;21591;-78
2023/01/20 05:34:44;;;;;;;204.30;61.08;;;;;;;-144.87;100.00;61487.56;5006380;28;20042;-78
2023/01/20 05:37:10;;;;;;;208.63;61.50;;;;;;;-144.87;100.00;61487.56;5007294;28;20037;-76
2023/01/20 05:39:36;;;;;;;191.43;57.83;;;;;;;-144.87;100.00;61487.56;5030909;28;20040;-77
2023/01/20 05:42:03;;;;;;;209.32;60.13;;;;;;;-144.87;100.00;61487.56;5031492;28;20041;-78
2023/01/20 05:44:31;;;;;;;213.65;60.03;;;;;;;-144.87;100.00;61487.56;5034832;28;20045;-77
2023/01/20 05:46:57;;;;;;;216.98;60.40;;;;;;;-144.87;100.00;61487.56;5016373;28;20396;-79
2023/01/20 05:49:24;;;;;;;213.52;58.83;;;;;;;-144.87;100.00;61487.56;5015418;28;20529;-77
2023/01/20 05:51:50;;;;;;;233.60;61.10;;;;;;;-144.87;100.00;61487.56;5002930;28;20088;-76
2023/01/20 05:54:17;;;;;;;233.75;61.55;;;;;;;-144.87;100.00;61487.56;5005777;28;20808;-77
2023/01/20 05:56:43;;;;;;;217.45;58.53;;;;;;;-144.87;100.00;61487.56;5019995;28;20435;-78
2023/01/20 05:59:09;;;;;;;239.32;59.92;;;;;;;-144.87;100.00;61487.56;4989082;28;20040;-77
2023/01/20 06:01:36;;;;;;;230.90;59.30;;;;;;;-144.87;100.00;61487.56;5001128;28;20117;-78
2023/01/20 06:04:02;;;;;;;227.85;59.45;;;;;;;-144.87;100.00;61487.56;5008874;28;20037;-79
2023/01/20 06:06:28;;;;;;;241.45;57.22;;;;;;;-144.87;100.00;61487.56;5006505;28;20045;-78
2023/01/20 06:08:55;;;;;;;256.42;61.40;;;;;;;-144.87;100.00;61487.56;5005822;28;20144;-79
2023/01/20 06:11:21;;;;;;;254.98;61.53;;;;;;;-144.87;100.00;61487.56;5015370;28;20476;-78
2023/01/20 06:13:47;;;;;;;253.40;59.03;;;;;;;-144.87;100.00;61487.56;5005312;28;20034;-78
2023/01/20 06:16:15;;;;;;;250.63;60.05;;;;;;;-144.87;100.00;61487.56;5004341;28;20045;-80
2023/01/20 06:18:41;;;;;;;257.23;62.08;;;;;;;-144.87;100.00;61487.56;5006034;28;20051;-78
2023/01/20 06:21:07;;;;;;;247.75;59.75;;;;;;;-144.87;100.00;61487.56;5034190;28;20045;-79
2023/01/20 06:23:34;;;;;;;228.90;59.30;;;;;;;-144.87;100.00;61487.56;5015517;28;20108;-79
2023/01/20 06:26:19;;;;;;;237.77;60.78;;;;;;;-144.87;100.00;61487.56;5006049;28;20087;-79
2023/01/20 06:28:45;;;;;;;232.20;61.60;;;;;;;-144.87;100.00;61487.56;5011331;28;20032;-79
2023/01/20 06:31:13;;;;;;;230.27;57.97;;;;;;;-144.87;100.00;61487.56;5017992;28;20188;-79
2023/01/20 06:33:40;;;;;;;260.23;61.55;;;;;;;-144.87;100.00;61487.56;5023419;28;20104;-79
2023/01/20 06:36:12;;;;;;;226.02;61.25;;;;;;;-144.87;100.00;61487.56;5034659;28;20025;-80
2023/01/20 06:38:39;;;;;;;239.90;57.72;;;;;;;-144.87;100.00;61487.56;5042744;28;20041;-80
2023/01/20 06:41:07;;;;;;;234.98;61.92;;;;;;;-144.87;100.00;61487.56;5043301;28;20026;-80
2023/01/20 06:43:38;;;;;;;243.90;61.28;;;;;;;-144.87;100.00;61487.56;5022238;28;20038;-80
2023/01/20 06:46:05;;;;;;;;;;;;;;;-144.87;100.00;61487.56;5034240;28;20103;-80
2023/01/20 06:48:32;;;;;;;250.23;58.72;;;;;;;-144.87;100.00;61487.56;5037235;28;19922;-80
2023/01/20 06:51:07;;;;;;;252.00;61.35;;;;;;;-144.87;100.00;61487.56;5038825;28;20120;-80
2023/01/20 06:53:33;;;;;;;248.38;64.22;;;;;;;-144.87;100.00;61487.56;4989646;28;20025;-80
2023/01/20 06:56:00;;;;;;;252.70;61.97;;;;;;;-144.87;100.00;61487.56;5006694;28;20553;-79
2023/01/20 06:58:28;;;;;;;250.88;62.15;;;;;;;-144.87;100.00;61487.56;5008456;28;20026;-79
2023/01/20 07:00:55;;;;;;;271.88;63.50;;;;;;;-144.87;100.00;61487.56;5007386;28;20455;-80
2023/01/20 07:03:22;;;;;;;272.98;63.35;;;;;;;-144.87;100.00;61487.56;5023117;28;20631;-79
2023/01/20 07:06:31;;;;;;;262.88;63.63;;;;;;;-144.87;100.00;61487.56;5018750;28;20444;-80
2023/01/20 07:08:59;;;;;;;250.65;62.25;;;;;;;-144.87;100.00;61487.56;5018166;28;20033;-80
2023/01/20 07:11:26;;;;;;;268.85;66.00;;;;;;;-144.87;100.00;61487.56;4990050;28;20510;-80
2023/01/20 07:13:52;;;;;;;264.90;60.17;;;;;;;-144.87;100.00;61487.56;4992633;28;20687;-79
2023/01/20 07:16:18;;;;;;;251.85;63.22;;;;;;;-144.87;100.00;61487.56;5024853;28;20073;-79
2023/01/20 07:18:49;;;;;;;278.65;62.42;;;;;;;-144.87;100.00;61487.56;5026325;28;20041;-79
2023/01/20 07:21:16;;;;;;;;;;;;;;;-144.87;100.00;61487.56;5011737;28;20076;-78
2023/01/20 07:23:42;;;;;;;243.50;58.22;;;;;;;-144.87;100.00;61487.56;5026527;28;19913;-78
2023/01/20 07:26:10;;;;;;;234.32;57.88;;;;;;;-144.87;100.00;61487.56;5011294;28;20664;-79
2023/01/20 07:28:37;;;;;;;247.48;58.13;;;;;;;-144.87;100.00;61487.56;5010203;28;20455;-79
2023/01/20 07:31:05;;;;;;;242.10;58.30;;;;;;;-144.87;100.00;61487.56;5026115;28;20081;-79
2023/01/20 07:33:32;;;;;;;252.43;59.45;;;;;;;-144.87;100.00;61487.56;5036922;28;20034;-79
2023/01/20 07:35:59;;;;;;;255.90;61.65;;;;;;;-144.87;100.00;61487.56;5023416;28;20039;-79
2023/01/20 07:38:25;;;;;;;251.88;60.38;;;;;;;-144.87;100.00;61487.56;5006762;28;20184;-80
2023/01/20 07:40:52;;;;;;;245.52;57.45;;;;;;;-144.87;100.00;61487.56;5008771;28;20523;-81
2023/01/20 07:43:19;;;;;;;236.23;58.63;;;;;;;-144.87;100.00;61487.56;5010245;28;20063;-81
2023/01/20 07:45:45;;;;;;;245.32;58.78;;;;;;;-144.87;100.00;61487.56;4991881;28;20042;-81
2023/01/20 07:48:11;;;;;;;261.30;61.45;;;;;;;-144.87;100.00;61487.56;4991539;28;20053;-80
2023/01/20 07:50:37;;;;;;;244.35;59.17;;;;;;;-144.87;100.00;61487.56;5008829;28;20527;-79
2023/01/20 07:53:04;;;;;;;223.93;57.17;;;;;;;-144.87;100.00;61487.56;5010853;28;20044;-79
2023/01/20 07:55:30;;;;;;;240.25;57.00;;;;;;;-144.87;100.00;61487.56;5026117;28;20072;-79
2023/01/20 07:57:57;;;;;;;232.45;57.13;;;;;;;-144.87;100.00;61487.56;5007580;28;20031;-78
2023/01/20 08:00:24;;;;;;;247.77;60.35;;;;;;;-144.87;100.00;61487.56;5008599;28;20075;-78
2023/01/20 08:02:50;;;;;;;230.05;56.85;;;;;;;-144.87;100.00;61487.56;5042060;28;20050;-78
2023/01/20 08:05:17;;;;;;;261.58;59.78;;;;;;;-144.87;100.00;61487.56;4980011;28;20030;-78
2023/01/20 08:07:43;;;;;;;211.95;55.75;;;;;;;-144.87;100.00;61487.56;5023202;28;20050;-79
2023/01/20 08:10:09;;;;;;;225.57;56.50;;;;;;;-144.87;100.00;61487.56;5005110;28;20102;-78
2023/01/20 08:12:35;;;;;;;231.45;56.83;;;;;;;-144.87;100.00;61487.56;5051618;28;20034;-79
2023/01/20 08:15:02;;;;;;;215.15;54.92;;;;;;;-144.87;100.00;61487.56;5025870;28;20076;-78
2023/01/20 08:17:28;;;;;;;216.43;54.97;;;;;;;-144.87;100.00;61487.56;5013506;28;20041;-79
2023/01/20 08:19:55;;;;;;;212.80;54.90;;;;;;;-144.87;100.00;61487.56;5005353;28;20351;-79
2023/01/20 08:22:21;;;;;;;219.60;55.72;;;;;;;-144.87;100.00;61487.56;5034964;28;20047;-80
2023/01/20 08:24:47;;;;;;;229.50;55.47;;;;;;;-144.87;100.00;61487.56;5039434;28;20370;-79
2023/01/20 08:27:14;;;;;;;204.15;53.88;;;;;;;-144.87;100.00;61487.56;5039731;28;20030;-79
2023/01/20 08:29:40;;;;;;;213.82;55.58;;;;;;;-144.87;100.00;61487.56;4999982;28;20135;-79
2023/01/20 08:32:06;;;;;;;199.65;55.35;;;;;;;-144.87;100.00;61487.56;5015512;28;20500;-80
2023/01/20 08:34:33;;;;;;;196.82;54.40;;;;;;;-144.87;100.00;61487.56;5009293;28;20076;-79
2023/01/20 08:36:59;;;;;;;199.13;52.33;;;;;;;-144.87;100.00;61487.56;5039721;28;20477;-80
2023/01/20 08:39:26;;;;;;;205.23;53.53;;;;;;;-144.87;100.00;61487.56;5029251;28;20076;-79
2023/01/20 08:41:52;;;;;;;183.77;52.60;;;;;;;-144.87;100.00;61487.56;5009306;28;20457;-80
2023/01/20 08:44:20;;;;;;;175.98;51.85;;;;;;;-144.87;100.00;61487.56;5009663;28;20176;-80
2023/01/20 08:46:46;;;;;;;161.23;49.55;;;;;;;-144.87;100.00;61487.56;5009609;28;20405;-80
2023/01/20 08:49:15;;;;;;;171.10;50.50;;;;;;;-144.87;100.00;61487.56;5025064;28;20050;-81
2023/01/20 08:51:42;;;;;;;171.50;49.45;;;;;;;-144.87;100.00;61487.56;5007145;28;20520;-81
2023/01/20 08:54:08;;;;;;;148.55;48.80;;;;;;;-144.87;100.00;61487.56;5022745;28;20083;-81
2023/01/20 08:56:35;;;;;;;164.95;51.30;;;;;;;-144.87;100.00;61487.56;5014796;28;20442;-81
2023/01/20 08:59:02;;;;;;;162.88;50.45;;;;;;;-144.87;100.00;61487.56;5038031;28;20046;-80
2023/01/20 09:01:32;;;;;;;154.35;50.10;;;;;;;-144.87;100.00;61487.56;5008843;28;20416;-81
2023/01/20 09:03:59;;;;;;;156.13;50.15;;;;;;;-144.87;100.00;61487.56;5040498;28;20038;-81
2023/01/20 09:06:26;;;;;;;151.40;50.95;;;;;;;-144.87;100.00;61487.56;5039654;28;20047;-81
2023/01/20 09:08:53;;;;;;;140.38;49.75;;;;;;;-144.87;100.00;61487.56;5008976;28;20038;-80
2023/01/20 09:11:23;;;;;;;147.55;49.15;;;;;;;-144.87;100.00;61487.56;5039343;28;20037;-83
2023/01/20 09:13:49;;;;;;;132.32;47.45;;;;;;;-144.87;100.00;61487.56;5040894;28;20033;-81
2023/01/20 09:16:18;;;;;;;132.55;47.40;;;;;;;-144.87;100.00;61487.56;5041085;28;20040;-81
2023/01/20 09:18:44;;;;;;;152.32;48.65;;;;;;;-144.87;100.00;61487.56;5009004;28;20062;-81
2023/01/20 09:21:11;;;;;;;146.20;48.90;;;;;;;-144.87;100.00;61487.56;5041853;28;20042;-81
2023/01/20 09:23:38;;;;;;;130.55;45.25;;;;;;;-144.87;100.00;61487.56;5041217;28;20096;-81
2023/01/20 09:26:06;;;;;;;137.18;47.70;;;;;;;-144.87;100.00;61487.56;5008251;28;20083;-81
2023/01/20 09:28:33;;;;;;;138.73;48.20;;;;;;;-144.87;100.00;61487.56;4992481;28;20412;-80
2023/01/20 09:31:07;;;;;;;133.20;46.78;;;;;;;-144.87;100.00;61487.56;5008464;28;20041;-82
2023/01/20 09:33:37;;;;;;;129.57;46.95;;;;;;;-144.87;100.00;61487.56;5040049;28;20429;-82
2023/01/20 09:36:05;;;;;;;137.43;45.90;;;;;;;-144.87;100.00;61487.56;5027240;28;20034;-80
2023/01/20 09:44:38;;;;;;;123.57;43.95;;;;;;;-144.87;100.00;61487.56;5024654;28;20054;-81
2023/01/20 09:47:25;;;;;;;119.30;44.35;;;;;;;-144.87;100.00;61487.56;4988899;28;20416;-81
2023/01/20 09:53:26;;;;;;;110.60;41.38;;;;;;;-144.87;100.00;61487.56;5040666;28;20522;-83
2023/01/20 09:55:58;;;;;;;119.85;40.30;;;;;;;-144.87;100.00;61487.56;5009297;28;20042;-81
2023/01/20 09:58:45;;;;;;;113.22;41.13;;;;;;;-144.87;100.00;61487.56;5039826;28;20038;-82
2023/01/20 10:01:23;;;;;;;117.70;39.72;;;;;;;-144.87;100.00;61487.56;5027092;28;20562;-82
2023/01/20 10:04:10;;;;;;;110.85;41.05;;;;;;;-144.87;100.00;61487.56;5017229;28;20045;-82
2023/01/20 10:06:52;;;;;;;117.10;40.78;;;;;;;-144.87;100.00;61487.56;5004144;28;20033;-81
2023/01/20 10:10:14;;;;;;;122.13;40.85;;;;;;;-144.87;100.00;61487.56;5018803;28;20045;-81
2023/01/20 10:13:03;;;;;;;;;;;;;;;-144.87;100.00;61487.56;4990052;28;20415;-82
2023/01/20 10:15:32;;;;;;;108.97;37.13;;;;;;;-144.87;100.00;61487.56;4983739;28;20000;-82
2023/01/20 10:18:17;;;;;;;116.28;40.13;;;;;;;-144.87;100.00;61487.56;5040164;28;20030;-81
2023/01/20 10:21:04;;;;;;;117.10;39.33;;;;;;;-144.87;100.00;61487.56;5036254;28;20176;-81
2023/01/20 10:23:51;;;;;;;104.15;39.53;;;;;;;-144.87;100.00;61487.56;5040160;28;20042;-82
2023/01/20 10:26:42;;;;;;;104.95;41.47;;;;;;;-144.87;100.00;61487.56;5023337;28;20189;-80
2023/01/20 10:29:35;;;;;;;110.18;38.92;;;;;;;-144.87;100.00;61487.56;5030237;28;20046;-81
2023/01/20 10:32:23;;;;;;;111.25;39.38;;;;;;;-144.87;100.00;61487.56;5006666;28;20133;-82
2023/01/20 10:34:53;;;;;;;121.88;39.20;;;;;;;-144.87;100.00;61487.56;5006542;28;20082;-82
2023/01/20 10:37:19;;;;;;;101.20;37.38;;;;;;;-144.87;100.00;61487.56;5042849;28;20042;-81
2023/01/20 10:39:53;;;;;;;103.50;38.00;;;;;;;-144.87;100.00;61487.56;5000826;28;20042;-81
2023/01/20 10:42:20;;;;;;;103.20;38.53;;;;;;;-144.87;100.00;61487.56;5011715;28;20443;-81
2023/01/20 10:44:48;;;;;;;96.47;37.45;;;;;;;-144.87;100.00;61487.56;5017939;28;20088;-80
2023/01/20 10:47:30;;;;;;;106.63;37.08;;;;;;;-144.87;100.00;61487.56;5040464;28;20030;-79
2023/01/20 10:50:28;;;;;;;89.63;34.67;;;;;;;-144.87;100.00;61487.56;5028975;28;20046;-80
2023/01/20 10:53:03;;;;;;;88.43;32.30;;;;;;;-144.87;100.00;61487.56;5026596;28;20040;-79
2023/01/20 10:55:39;;;;;;;89.35;34.85;;;;;;;-144.87;100.00;61487.56;5008970;28;20033;-79
2023/01/20 10:58:27;;;;;;;85.28;34.05;;;;;;;-144.87;100.00;61487.56;5035617;28;20038;-79
2023/01/20 11:00:54;;;;;;;79.25;30.75;;;;;;;-144.87;100.00;61487.56;5019621;28;20046;-78
2023/01/20 11:03:21;;;;;;;75.93;30.13;;;;;;;-144.87;100.00;61487.56;5023711;28;20095;-79
2023/01/20 11:05:49;;;;;;;67.20;28.65;;;;;;;-144.87;100.00;61487.56;5036254;28;20042;-79
2023/01/20 11:08:27;;;;;;;67.00;28.63;;;;;;;-144.87;100.00;61487.56;5034701;28;20026;-79
2023/01/20 11:10:57;;;;;;;63.97;27.85;;;;;;;-144.87;100.00;61487.56;5001332;28;20035;-79
2023/01/20 11:13:24;;;;;;;65.43;26.87;;;;;;;-144.87;100.00;61487.56;5001201;28;20393;-79